Time,TemperatureF,DewpointF,PressureIn,WindDirection,WindDirectionDegrees,WindSpeedMPH,WindSpeedGustMPH,Humidity,HourlyPrecipIn,Conditions,Clouds,dailyrainin,SolarRadiationWatts/m^2,SoftwareType,DateUTC
2013-10-18 00:00:00,40.0,38.0,-100.00,SSE,157,0.0,-999.0,94,-99.99,,,-99.99,1.160000,,2013-10-18 04:00:00,
2013-10-18 00:44:00,40.0,38.0,-100.00,SSE,157,0.0,-999.0,94,-99.99,,,-99.99,1.160000,,2013-10-18 04:44:00,
2013-10-18 00:53:00,40.0,38.0,-100.00,SSE,157,0.0,-999.0,94,-99.99,,,-99.99,1.160000,,2013-10-18 04:53:00,
2013-10-18 01:00:00,40.0,39.0,-100.00,SSE,157,0.0,-999.0,95,-99.99,,,-99.99,1.160000,,2013-10-18 05:00:00,
2013-10-18 01:43:00,40.0,39.0,-100.00,SSE,157,0.0,-999.0,95,-99.99,,,-99.99,1.160000,,2013-10-18 05:43:00,
2013-10-18 01:52:00,40.0,39.0,-100.00,SSE,157,0.0,-999.0,95,-99.99,,,-99.99,1.160000,,2013-10-18 05:52:00,
2013-10-18 02:00:00,40.0,39.0,-100.00,SSE,157,0.0,-999.0,95,-99.99,,,-99.99,1.160000,,2013-10-18 06:00:00,
2013-10-18 02:42:00,40.0,39.0,-100.00,SSE,157,0.0,-999.0,95,-99.99,,,-99.99,1.160000,,2013-10-18 06:42:00,
2013-10-18 02:52:00,40.0,39.0,-100.00,SSE,157,0.0,-999.0,95,-99.99,,,-99.99,1.160000,,2013-10-18 06:52:00,
2013-10-18 03:00:00,40.0,39.0,-100.00,SSE,157,0.0,-999.0,95,-99.99,,,-99.99,1.160000,,2013-10-18 07:00:00,
2013-10-18 03:42:00,40.0,39.0,-100.00,SSE,157,0.0,-999.0,95,-99.99,,,-99.99,1.160000,,2013-10-18 07:42:00,
2013-10-18 03:52:00,40.0,39.0,-100.00,SSE,157,0.0,-999.0,95,-99.99,,,-99.99,1.160000,,2013-10-18 07:52:00,
2013-10-18 04:00:00,39.0,38.0,-100.00,SSE,157,0.0,-999.0,95,-99.99,,,-99.99,1.160000,,2013-10-18 08:00:00,
2013-10-18 04:42:00,39.0,38.0,-100.00,SSE,157,0.0,-999.0,95,-99.99,,,-99.99,1.160000,,2013-10-18 08:42:00,
2013-10-18 04:52:00,39.0,38.0,-100.00,SSE,157,0.0,-999.0,95,-99.99,,,-99.99,1.160000,,2013-10-18 08:52:00,
2013-10-18 05:00:00,39.0,38.0,-100.00,SSE,157,0.0,-999.0,95,-99.99,,,-99.99,1.160000,,2013-10-18 09:00:00,
2013-10-18 05:43:00,39.0,38.0,-100.00,SSE,157,0.0,-999.0,95,-99.99,,,-99.99,1.160000,,2013-10-18 09:43:00,
2013-10-18 05:53:00,39.0,38.0,-100.00,SSE,157,0.0,-999.0,95,-99.99,,,-99.99,1.160000,,2013-10-18 09:53:00,
2013-10-18 06:00:00,40.0,38.0,-100.00,South,180,1.0,-999.0,95,-99.99,,,-99.99,1.160000,,2013-10-18 10:00:00,
2013-10-18 06:43:00,40.0,38.0,-100.00,South,180,1.0,-999.0,95,-99.99,,,-99.99,1.160000,,2013-10-18 10:43:00,
2013-10-18 06:53:00,40.0,38.0,-100.00,South,180,1.0,-999.0,95,-99.99,,,-99.99,1.160000,,2013-10-18 10:53:00,
2013-10-18 07:00:00,40.0,39.0,-100.00,SSW,202,1.0,-999.0,94,-99.99,,,-99.99,1.160000,,2013-10-18 11:00:00,
2013-10-18 07:42:00,40.0,39.0,-100.00,SSW,202,1.0,-999.0,94,-99.99,,,-99.99,1.160000,,2013-10-18 11:42:00,
2013-10-18 07:52:00,40.0,39.0,-100.00,SSW,202,1.0,-999.0,94,-99.99,,,-99.99,1.160000,,2013-10-18 11:52:00,
2013-10-18 08:00:00,40.0,39.0,-100.00,SSW,202,0.0,-999.0,94,-99.99,,,-99.99,1.160000,,2013-10-18 12:00:00,
2013-10-18 08:42:00,40.0,39.0,-100.00,SSW,202,0.0,-999.0,94,-99.99,,,-99.99,1.160000,,2013-10-18 12:42:00,
2013-10-18 08:52:00,40.0,39.0,-100.00,SSW,202,0.0,-999.0,94,-99.99,,,-99.99,1.160000,,2013-10-18 12:52:00,
2013-10-18 09:00:00,41.0,40.0,-100.00,SSW,202,1.0,-999.0,94,-99.99,,,-99.99,29.000000,,2013-10-18 13:00:00,
2013-10-18 09:42:00,41.0,40.0,-100.00,SSW,202,1.0,-999.0,94,-99.99,,,-99.99,29.000000,,2013-10-18 13:42:00,
2013-10-18 09:52:00,41.0,40.0,-100.00,SSW,202,1.0,-999.0,94,-99.99,,,-99.99,29.000000,,2013-10-18 13:52:00,
2013-10-18 10:00:00,44.0,41.0,-100.00,West,270,4.0,-999.0,88,-99.99,,,-99.99,110.199997,,2013-10-18 14:00:00,
2013-10-18 10:42:00,44.0,41.0,-100.00,West,270,4.0,-999.0,88,-99.99,,,-99.99,110.199997,,2013-10-18 14:42:00,
2013-10-18 10:52:00,44.0,41.0,-100.00,West,270,4.0,-999.0,88,-99.99,,,-99.99,110.199997,,2013-10-18 14:52:00,
2013-10-18 11:00:00,49.0,45.0,-100.00,WNW,292,6.0,-999.0,86,-99.99,,,-99.99,256.359985,,2013-10-18 15:00:00,
2013-10-18 11:43:00,49.0,45.0,-100.00,WNW,292,6.0,-999.0,86,-99.99,,,-99.99,256.359985,,2013-10-18 15:43:00,
2013-10-18 11:54:00,49.0,45.0,-100.00,WNW,292,6.0,-999.0,86,-99.99,,,-99.99,256.359985,,2013-10-18 15:54:00,
2013-10-18 12:00:00,55.0,49.0,-100.00,NW,315,9.0,-999.0,78,-99.99,,,-99.99,315.519989,,2013-10-18 16:00:00,
2013-10-18 12:42:00,55.0,49.0,-100.00,NW,315,9.0,-999.0,78,-99.99,,,-99.99,315.519989,,2013-10-18 16:42:00,
2013-10-18 12:53:00,55.0,49.0,-100.00,NW,315,9.0,-999.0,78,-99.99,,,-99.99,315.519989,,2013-10-18 16:53:00,
2013-10-18 13:00:00,57.0,47.0,-100.00,NNW,337,9.0,-999.0,69,-99.99,,,-99.99,443.119995,,2013-10-18 17:00:00,
2013-10-18 13:42:00,57.0,47.0,-100.00,NNW,337,9.0,-999.0,69,-99.99,,,-99.99,443.119995,,2013-10-18 17:42:00,
2013-10-18 13:52:00,57.0,47.0,-100.00,NNW,337,9.0,-999.0,69,-99.99,,,-99.99,443.119995,,2013-10-18 17:52:00,
2013-10-18 14:00:00,55.0,46.0,-100.00,SE,135,10.0,-999.0,73,-99.99,,,-99.99,273.760010,,2013-10-18 18:00:00,
2013-10-18 14:42:00,55.0,46.0,-100.00,SE,135,10.0,-999.0,73,-99.99,,,-99.99,273.760010,,2013-10-18 18:42:00,
2013-10-18 14:52:00,55.0,46.0,-100.00,SE,135,10.0,-999.0,73,-99.99,,,-99.99,273.760010,,2013-10-18 18:52:00,
2013-10-18 15:00:00,53.0,45.0,-100.00,ENE,67,9.0,-999.0,74,-99.99,,,-99.99,162.399994,,2013-10-18 19:00:00,
2013-10-18 15:42:00,53.0,45.0,-100.00,ENE,67,9.0,-999.0,74,-99.99,,,-99.99,162.399994,,2013-10-18 19:42:00,
2013-10-18 15:52:00,53.0,45.0,-100.00,ENE,67,9.0,-999.0,74,-99.99,,,-99.99,162.399994,,2013-10-18 19:52:00,
2013-10-18 16:00:00,52.0,44.0,-100.00,North,0,9.0,-999.0,73,-99.99,,,-99.99,103.239998,,2013-10-18 20:00:00,
2013-10-18 16:42:00,52.0,44.0,-100.00,North,0,9.0,-999.0,73,-99.99,,,-99.99,103.239998,,2013-10-18 20:42:00,
2013-10-18 16:52:00,52.0,44.0,-100.00,North,0,9.0,-999.0,73,-99.99,,,-99.99,103.239998,,2013-10-18 20:52:00,
2013-10-18 17:00:00,51.0,43.0,-100.00,NNE,22,8.0,-999.0,72,-99.99,,,-99.99,41.759998,,2013-10-18 21:00:00,
2013-10-18 17:45:00,51.0,43.0,-100.00,NNE,22,8.0,-999.0,72,-99.99,,,-99.99,41.759998,,2013-10-18 21:45:00,
2013-10-18 17:54:00,51.0,43.0,-100.00,NNE,22,8.0,-999.0,72,-99.99,,,-99.99,41.759998,,2013-10-18 21:54:00,
2013-10-18 18:00:00,51.0,41.0,-100.00,NNE,22,7.0,-999.0,69,-99.99,,,-99.99,33.639999,,2013-10-18 22:00:00,
2013-10-18 18:43:00,51.0,41.0,-100.00,NNE,22,7.0,-999.0,69,-99.99,,,-99.99,33.639999,,2013-10-18 22:43:00,
2013-10-18 18:54:00,51.0,41.0,-100.00,NNE,22,7.0,-999.0,69,-99.99,,,-99.99,33.639999,,2013-10-18 22:54:00,
2013-10-18 19:00:00,51.0,40.0,-100.00,NNE,22,6.0,-999.0,67,-99.99,,,-99.99,6.960000,,2013-10-18 23:00:00,
2013-10-18 19:43:00,51.0,40.0,-100.00,NNE,22,6.0,-999.0,67,-99.99,,,-99.99,6.960000,,2013-10-18 23:43:00,
2013-10-18 19:53:00,51.0,40.0,-100.00,NNE,22,6.0,-999.0,67,-99.99,,,-99.99,6.960000,,2013-10-18 23:53:00,
2013-10-18 20:00:00,50.0,41.0,-100.00,North,0,5.0,-999.0,69,-99.99,,,-99.99,1.160000,,2013-10-19 00:00:00,
2013-10-18 20:42:00,50.0,41.0,-100.00,North,0,5.0,-999.0,69,-99.99,,,-99.99,1.160000,,2013-10-19 00:42:00,
2013-10-18 20:52:00,50.0,41.0,-100.00,North,0,5.0,-999.0,69,-99.99,,,-99.99,1.160000,,2013-10-19 00:52:00,
2013-10-18 21:00:00,51.0,40.0,-100.00,NNE,22,6.0,-999.0,67,-99.99,,,-99.99,1.160000,,2013-10-19 01:00:00,
2013-10-18 21:42:00,51.0,40.0,-100.00,NNE,22,6.0,-999.0,67,-99.99,,,-99.99,1.160000,,2013-10-19 01:42:00,
2013-10-18 21:53:00,51.0,40.0,-100.00,NNE,22,6.0,-999.0,67,-99.99,,,-99.99,1.160000,,2013-10-19 01:53:00,
2013-10-18 22:00:00,50.0,41.0,-100.00,NNE,22,6.0,-999.0,71,-99.99,,,-99.99,1.160000,,2013-10-19 02:00:00,
2013-10-18 22:42:00,50.0,41.0,-100.00,NNE,22,6.0,-999.0,71,-99.99,,,-99.99,1.160000,,2013-10-19 02:42:00,
2013-10-18 22:52:00,50.0,41.0,-100.00,NNE,22,6.0,-999.0,71,-99.99,,,-99.99,1.160000,,2013-10-19 02:52:00,
2013-10-18 23:00:00,50.0,41.0,-100.00,NE,45,7.0,-999.0,71,-99.99,,,-99.99,1.160000,,2013-10-19 03:00:00,
2013-10-18 23:45:00,50.0,41.0,-100.00,NE,45,7.0,-999.0,71,-99.99,,,-99.99,1.160000,,2013-10-19 03:45:00,
2013-10-18 23:55:00,50.0,41.0,-100.00,NE,45,7.0,-999.0,71,-99.99,,,-99.99,1.160000,,2013-10-19 03:55:00,